createdAt,value
2019-04-11T00:01:52.711Z,45.40
2019-04-11T00:04:20.616Z,46.00
2019-04-11T00:06:47.849Z,45.40
2019-04-11T00:09:16.692Z,45.60
2019-04-11T00:11:44.209Z,45.60
2019-04-11T00:14:13.848Z,45.80
2019-04-11T00:16:41.428Z,45.80
2019-04-11T00:19:07.786Z,45.90
2019-04-11T00:21:34.908Z,45.90
2019-04-11T00:24:01.275Z,46.00
2019-04-11T00:26:28.591Z,46.10
2019-04-11T00:28:54.823Z,46.30
2019-04-11T00:31:21.060Z,46.30
2019-04-11T00:33:47.242Z,46.40
2019-04-11T00:36:14.441Z,46.50
2019-04-11T00:38:42.327Z,46.60
2019-04-11T00:41:08.666Z,46.70
2019-04-11T00:43:39.265Z,46.70
2019-04-11T00:46:09.925Z,47.00
2019-04-11T00:48:38.896Z,47.00
2019-04-11T00:51:05.207Z,47.20
2019-04-11T00:53:31.366Z,47.30
2019-04-11T00:55:57.733Z,47.30
2019-04-11T00:58:24.037Z,47.40
2019-04-11T01:00:51.306Z,47.40
2019-04-11T01:03:18.005Z,47.50
2019-04-11T01:05:44.428Z,47.60
2019-04-11T01:08:13.746Z,47.60
2019-04-11T01:10:43.564Z,48.00
2019-04-11T01:13:11.174Z,47.80
2019-04-11T01:15:48.998Z,47.90
2019-04-11T01:18:16.009Z,48.20
2019-04-11T01:20:42.344Z,48.20
2019-04-11T01:23:08.945Z,48.20
2019-04-11T01:25:36.791Z,48.40
2019-04-11T01:28:03.206Z,48.40
2019-04-11T01:30:33.323Z,48.40
2019-04-11T01:32:59.595Z,48.50
2019-04-11T01:35:25.792Z,48.70
2019-04-11T01:37:52.303Z,48.70
2019-04-11T01:40:18.615Z,48.80
2019-04-11T01:42:44.842Z,49.10
2019-04-11T01:45:11.734Z,49.20
2019-04-11T01:47:57.574Z,49.10
2019-04-11T01:50:25.675Z,49.20
2019-04-11T01:52:52.884Z,49.30
2019-04-11T01:55:20.588Z,49.40
2019-04-11T01:57:46.975Z,49.60
2019-04-11T02:00:17.677Z,49.70
2019-04-11T02:02:52.875Z,49.80
2019-04-11T02:05:27.280Z,49.80
2019-04-11T02:07:53.589Z,49.90
2019-04-11T02:10:20.961Z,50.00
2019-04-11T02:12:47.686Z,50.00
2019-04-11T02:15:17.142Z,50.10
2019-04-11T02:17:46.726Z,50.40
2019-04-11T02:20:14.559Z,51.00
2019-04-11T02:22:42.846Z,50.40
2019-04-11T02:25:23.148Z,50.60
2019-04-11T02:27:52.553Z,50.80
2019-04-11T02:30:21.091Z,50.70
2019-04-11T02:32:51.244Z,50.80
2019-04-11T02:35:19.832Z,50.90
2019-04-11T02:37:49.514Z,51.00
2019-04-11T02:40:15.475Z,51.10
2019-04-11T02:42:43.213Z,51.20
2019-04-11T02:45:26.348Z,51.30
2019-04-11T02:47:41.557Z,51.40
2019-04-11T02:50:12.436Z,51.50
2019-04-11T02:52:42.106Z,51.50
2019-04-11T02:55:10.315Z,51.60
2019-04-11T02:57:38.558Z,51.70
2019-04-11T03:00:06.405Z,51.80
2019-04-11T03:02:37.027Z,51.80
2019-04-11T03:05:05.574Z,52.10
2019-04-11T03:07:33.877Z,52.00
2019-04-11T03:10:00.398Z,52.10
2019-04-11T03:12:27.530Z,52.20
2019-04-11T03:15:10.847Z,52.20
2019-04-11T03:17:31.580Z,52.30
2019-04-11T03:20:08.932Z,52.30
2019-04-11T03:22:22.785Z,52.40
2019-04-11T03:24:58.372Z,52.50
2019-04-11T03:27:28.097Z,52.50
2019-04-11T03:29:58.057Z,52.60
2019-04-11T03:33:00.584Z,52.80
2019-04-11T03:36:00.202Z,52.80
2019-04-11T03:37:58.616Z,52.80
2019-04-11T03:40:28.291Z,52.90
2019-04-11T03:42:46.314Z,53.00
2019-04-11T03:45:20.921Z,53.30
2019-04-11T03:47:41.052Z,53.30
2019-04-11T03:50:07.220Z,53.30
2019-04-11T03:52:26.136Z,53.40
2019-04-11T03:54:53.983Z,53.50
2019-04-11T03:57:21.536Z,53.60
2019-04-11T03:59:52.030Z,53.80
2019-04-11T04:02:20.270Z,53.80
2019-04-11T04:04:46.826Z,53.80
2019-04-11T04:07:16.454Z,54.00
2019-04-11T04:09:42.366Z,54.00
2019-04-11T04:12:13.641Z,54.20
2019-04-11T04:14:53.737Z,54.20
2019-04-11T04:17:41.323Z,54.20
2019-04-11T04:20:21.628Z,54.20
2019-04-11T04:22:58.610Z,54.30
2019-04-11T04:25:26.158Z,54.30
2019-04-11T04:27:54.257Z,54.40
2019-04-11T04:30:21.898Z,54.60
2019-04-11T04:32:49.644Z,54.60
2019-04-11T04:35:36.210Z,54.60
2019-04-11T04:38:03.233Z,54.60
2019-04-11T04:40:50.094Z,54.70
2019-04-11T04:43:01.258Z,54.80
2019-04-11T04:45:27.752Z,54.90
2019-04-11T04:48:10.168Z,54.90
2019-04-11T04:50:34.424Z,55.10
2019-04-11T04:53:02.757Z,55.10
2019-04-11T04:55:30.324Z,55.20
2019-04-11T04:58:01.804Z,55.30
2019-04-11T05:00:29.866Z,55.30
2019-04-11T05:03:09.763Z,55.40
2019-04-11T05:05:39.103Z,55.40
2019-04-11T05:08:20.904Z,55.70
2019-04-11T05:10:47.225Z,55.60
2019-04-11T05:13:15.118Z,55.60
2019-04-11T05:15:42.144Z,55.70
2019-04-11T05:18:11.460Z,56.30
2019-04-11T05:20:38.589Z,55.90
2019-04-11T05:23:04.928Z,56.00
2019-04-11T05:25:32.687Z,56.00
2019-04-11T05:28:19.639Z,56.10
2019-04-11T05:30:45.861Z,56.20
2019-04-11T05:33:12.061Z,56.30
2019-04-11T05:35:38.287Z,56.40
2019-04-11T05:38:05.713Z,57.00
2019-04-11T05:40:32.491Z,56.40
2019-04-11T05:42:59.623Z,56.40
2019-04-11T05:45:26.462Z,56.60
2019-04-11T05:48:13.582Z,56.70
2019-04-11T05:50:58.377Z,56.60
2019-04-11T05:53:24.984Z,56.70
2019-04-11T05:56:03.683Z,56.70
2019-04-11T05:58:42.167Z,56.80
2019-04-11T06:01:27.368Z,56.80
2019-04-11T06:03:59.083Z,56.70
2019-04-11T06:06:44.360Z,56.80
2019-04-11T06:09:21.080Z,56.90
2019-04-11T06:12:01.272Z,56.70
2019-04-11T06:14:44.550Z,56.70
2019-04-11T06:17:14.258Z,56.60
2019-04-11T06:19:43.773Z,56.60
2019-04-11T06:22:10.815Z,56.50
2019-04-11T06:24:54.386Z,56.60
2019-04-11T06:27:25.226Z,56.60
2019-04-11T06:30:09.970Z,56.60
2019-04-11T06:32:38.370Z,56.80
2019-04-11T06:35:15.921Z,56.80
2019-04-11T06:37:52.810Z,56.70
2019-04-11T06:40:29.615Z,56.90
2019-04-11T06:43:07.813Z,56.80
2019-04-11T06:45:39.740Z,56.70
2019-04-11T06:48:11.576Z,56.60
2019-04-11T06:51:01.739Z,56.70
2019-04-11T06:53:48.660Z,56.50
2019-04-11T06:56:16.931Z,56.50
2019-04-11T06:58:45.766Z,56.50
2019-04-11T07:01:14.098Z,56.50
2019-04-11T07:03:49.071Z,56.30
2019-04-11T07:06:21.643Z,56.20
2019-04-11T07:09:10.646Z,56.30
2019-04-11T07:11:38.800Z,56.20
2019-04-11T07:14:22.447Z,56.20
2019-04-11T07:17:11.057Z,56.10
2019-04-11T07:20:09.141Z,56.00
2019-04-11T07:22:48.834Z,55.60
2019-04-11T07:25:22.978Z,55.60
2019-04-11T07:28:08.444Z,55.60
2019-04-11T07:30:45.612Z,55.60
2019-04-11T07:33:29.027Z,55.60
2019-04-11T07:36:01.659Z,55.70
2019-04-11T07:38:52.134Z,55.60
2019-04-11T07:41:19.975Z,55.50
2019-04-11T07:44:17.609Z,55.60
2019-04-11T07:46:55.908Z,56.00
2019-04-11T07:49:28.530Z,55.40
2019-04-11T07:51:56.765Z,55.20
2019-04-11T07:54:25.955Z,55.20
2019-04-11T07:57:10.819Z,55.20
2019-04-11T07:59:55.789Z,55.20
2019-04-11T08:02:40.788Z,55.00
2019-04-11T08:05:15.494Z,54.90
2019-04-11T08:07:55.902Z,54.80
2019-04-11T08:10:33.075Z,54.60
2019-04-11T08:13:06.903Z,54.60
2019-04-11T08:15:40.337Z,54.60
2019-04-11T08:18:20.873Z,54.40
2019-04-11T08:20:53.219Z,54.40
2019-04-11T08:23:21.595Z,54.30
2019-04-11T08:25:53.579Z,54.30
2019-04-11T08:28:20.585Z,54.10
2019-04-11T08:30:51.883Z,54.00
2019-04-11T08:33:20.040Z,54.00
2019-04-11T08:35:51.343Z,54.00
2019-04-11T08:38:22.419Z,53.90
2019-04-11T08:40:51.386Z,53.60
2019-04-11T08:43:37.443Z,53.70
2019-04-11T08:46:23.982Z,53.60
2019-04-11T08:48:57.946Z,53.40
2019-04-11T08:51:27.370Z,53.30
2019-04-11T08:54:19.820Z,53.10
2019-04-11T08:56:49.456Z,53.20
2019-04-11T08:59:39.783Z,53.00
2019-04-11T09:02:24.845Z,52.70
2019-04-11T09:05:29.125Z,52.60
2019-04-11T09:08:16.377Z,52.50
2019-04-11T09:11:14.946Z,51.90
2019-04-11T09:13:59.915Z,52.10
2019-04-11T09:17:05.830Z,52.10
2019-04-11T09:19:43.112Z,52.00
2019-04-11T09:22:31.250Z,51.60
2019-04-11T09:25:08.448Z,51.60
2019-04-11T09:27:36.602Z,51.40
2019-04-11T09:30:17.404Z,51.30
2019-04-11T09:32:52.755Z,51.30
2019-04-11T09:35:22.064Z,51.20
2019-04-11T09:37:49.565Z,51.10
2019-04-11T09:40:17.833Z,51.20
2019-04-11T09:42:48.676Z,51.10
2019-04-11T09:45:35.446Z,51.30
2019-04-11T09:48:22.246Z,51.50
2019-04-11T09:51:26.477Z,51.90
2019-04-11T09:53:55.171Z,54.60
2019-04-11T09:56:31.939Z,54.20
2019-04-11T09:59:17.029Z,53.00
2019-04-11T10:01:54.092Z,48.90
2019-04-11T10:04:23.336Z,42.00
2019-04-11T10:07:11.036Z,38.80
2019-04-11T10:10:10.796Z,37.50
2019-04-11T10:12:58.630Z,37.30
2019-04-11T10:15:27.204Z,37.40
2019-04-11T10:18:27.742Z,38.00
2019-04-11T10:20:54.992Z,39.00
2019-04-11T10:23:23.313Z,39.50
2019-04-11T10:25:51.652Z,40.10
2019-04-11T10:28:41.825Z,40.50
2019-04-11T10:31:10.480Z,41.00
2019-04-11T10:33:39.365Z,40.80
2019-04-11T10:36:10.574Z,40.70
2019-04-11T10:38:40.445Z,40.50
2019-04-11T10:41:25.676Z,41.40
2019-04-11T10:43:52.113Z,41.50
2019-04-11T10:46:20.190Z,41.60
2019-04-11T10:48:57.080Z,41.40
2019-04-11T10:51:34.163Z,40.80
2019-04-11T10:54:02.852Z,40.20
2019-04-11T10:57:03.856Z,40.10
2019-04-11T10:59:38.556Z,40.40
2019-04-11T11:02:27.861Z,39.70
2019-04-11T11:04:57.253Z,39.40
2019-04-11T11:07:24.651Z,39.60
2019-04-11T11:10:09.259Z,41.00
2019-04-11T11:13:01.686Z,39.50
2019-04-11T11:15:29.613Z,39.20
2019-04-11T11:21:00.331Z,38.80
2019-04-11T11:23:44.860Z,39.00
2019-04-11T11:26:20.449Z,39.00
2019-04-11T11:29:07.321Z,38.70
2019-04-11T11:31:43.049Z,39.90
2019-04-11T11:34:23.661Z,44.90
2019-04-11T11:37:23.243Z,45.10
2019-04-11T11:39:55.911Z,39.90
2019-04-11T11:42:42.093Z,38.50
2019-04-11T11:45:37.499Z,36.00
2019-04-11T11:48:15.908Z,33.00
2019-04-11T11:50:39.369Z,30.40
2019-04-11T11:53:25.864Z,29.10
2019-04-11T11:55:53.565Z,28.30
2019-04-11T11:58:37.544Z,26.60
2019-04-11T12:01:24.120Z,26.30
2019-04-11T12:04:10.796Z,25.60
2019-04-11T12:06:38.834Z,24.20
2019-04-11T12:09:07.176Z,24.40
2019-04-11T12:11:35.416Z,24.20
2019-04-11T12:14:07.563Z,23.50
2019-04-11T12:16:41.762Z,23.20
2019-04-11T12:19:16.057Z,22.80
2019-04-11T12:21:40.989Z,22.40
2019-04-11T12:24:30.173Z,22.30
2019-04-11T12:27:08.671Z,21.90
2019-04-11T12:29:50.126Z,22.10
2019-04-11T12:32:20.083Z,22.00
2019-04-11T12:35:06.179Z,21.00
2019-04-11T12:37:37.846Z,20.70
2019-04-11T12:40:42.136Z,21.40
2019-04-11T12:43:12.388Z,22.50
2019-04-11T12:45:57.286Z,22.10
2019-04-11T12:48:25.422Z,22.40
2019-04-11T12:50:56.653Z,22.00
2019-04-11T12:53:23.050Z,21.30
2019-04-11T12:55:54.354Z,20.70
2019-04-11T12:58:22.430Z,20.80
2019-04-11T13:01:13.436Z,21.20
2019-04-11T13:03:59.546Z,21.80
2019-04-11T13:06:49.117Z,22.00
2019-04-11T13:09:46.030Z,22.80
2019-04-11T13:12:23.467Z,23.00
2019-04-11T13:14:57.406Z,24.10
2019-04-11T13:17:43.132Z,25.60
2019-04-11T13:20:27.937Z,25.90
2019-04-11T13:23:05.040Z,25.10
2019-04-11T13:25:39.041Z,24.00
2019-04-11T13:28:08.430Z,23.30
2019-04-11T13:30:39.483Z,22.60
2019-04-11T13:33:21.983Z,22.20
2019-04-11T13:36:23.081Z,21.20
2019-04-11T13:38:52.011Z,21.10
2019-04-11T13:41:20.595Z,21.80
2019-04-11T13:43:49.118Z,21.40
2019-04-11T13:46:35.714Z,20.40
2019-04-11T13:49:40.242Z,21.00
2019-04-11T13:52:11.599Z,21.20
2019-04-11T13:54:39.693Z,20.50
2019-04-11T13:57:10.994Z,19.80
2019-04-11T13:59:51.479Z,20.00
2019-04-11T14:02:54.544Z,20.50
2019-04-11T14:05:23.413Z,19.80
2019-04-11T14:07:51.489Z,19.40
2019-04-11T14:10:18.926Z,18.70
2019-04-11T14:12:47.761Z,18.70
2019-04-11T14:15:21.424Z,19.40
2019-04-11T14:18:11.686Z,19.40
2019-04-11T14:20:41.992Z,19.70
2019-04-11T14:23:14.889Z,20.10
2019-04-11T14:28:51.538Z,20.90
2019-04-11T14:31:31.401Z,21.70
2019-04-11T14:34:13.902Z,21.90
2019-04-11T14:37:16.948Z,23.90
2019-04-11T14:39:47.809Z,23.10
2019-04-11T14:42:32.989Z,21.40
2019-04-11T14:44:59.380Z,21.50
2019-04-11T14:50:53.417Z,22.10
2019-04-11T14:53:33.602Z,21.90
2019-04-11T14:56:01.685Z,21.60
2019-04-11T14:58:35.715Z,22.00
2019-04-11T15:01:19.076Z,22.30
2019-04-11T15:03:50.149Z,22.40
2019-04-11T15:06:18.459Z,22.70
2019-04-11T15:08:52.164Z,22.90
2019-04-11T15:11:25.836Z,23.00
2019-04-11T15:13:53.941Z,23.00
2019-04-11T15:16:27.607Z,23.10
2019-04-11T15:18:58.442Z,24.00
2019-04-11T15:21:43.229Z,24.00
2019-04-11T15:24:28.140Z,24.00
2019-04-11T15:27:06.583Z,23.90
2019-04-11T15:29:33.333Z,23.90
2019-04-11T15:32:04.070Z,23.80
2019-04-11T15:34:38.596Z,23.90
2019-04-11T15:37:12.738Z,24.00
2019-04-11T15:39:59.114Z,24.10
2019-04-11T15:42:45.206Z,24.40
2019-04-11T15:45:31.466Z,24.50
2019-04-11T15:48:11.707Z,24.50
2019-04-11T15:53:46.556Z,24.70
2019-04-11T15:56:40.849Z,24.80
2019-04-11T15:59:33.375Z,24.80
2019-04-11T16:02:18.304Z,24.90
2019-04-11T16:04:55.798Z,24.80
2019-04-11T16:07:23.924Z,24.90
2019-04-11T16:09:52.165Z,25.00
2019-04-11T16:12:36.988Z,25.10
2019-04-11T16:15:16.214Z,25.30
2019-04-11T16:18:03.338Z,25.50
2019-04-11T16:20:50.875Z,25.60
2019-04-11T16:23:48.652Z,25.70
2019-04-11T16:26:19.524Z,25.80
2019-04-11T16:29:08.669Z,25.90
2019-04-11T16:31:47.494Z,25.90
2019-04-11T16:34:18.438Z,26.10
2019-04-11T16:36:46.584Z,26.20
2019-04-11T16:39:14.788Z,26.30
2019-04-11T16:41:54.506Z,26.30
2019-04-11T16:44:50.367Z,26.40
2019-04-11T16:47:27.548Z,26.40
2019-04-11T16:49:57.525Z,26.70
2019-04-11T16:52:42.793Z,26.70
2019-04-11T16:55:11.582Z,26.80
2019-04-11T16:57:38.496Z,27.00
2019-04-11T17:00:20.365Z,27.00
2019-04-11T17:02:45.313Z,27.00
2019-04-11T17:05:11.532Z,27.10
2019-04-11T17:07:48.804Z,27.20
2019-04-11T17:10:17.199Z,27.20
2019-04-11T17:13:02.042Z,27.40
2019-04-11T17:15:30.457Z,27.40
2019-04-11T17:17:56.513Z,27.50
2019-04-11T17:20:22.901Z,27.60
2019-04-11T17:23:07.803Z,27.60
2019-04-11T17:25:34.421Z,27.60
2019-04-11T17:28:22.857Z,27.70
2019-04-11T17:30:49.912Z,27.90
2019-04-11T17:33:16.308Z,28.00
2019-04-11T17:35:42.519Z,28.10
2019-04-11T17:38:08.694Z,28.30
2019-04-11T17:40:37.398Z,28.30
2019-04-11T17:43:06.255Z,28.40
2019-04-11T17:45:38.804Z,28.60
2019-04-11T17:48:05.070Z,28.70
2019-04-11T17:50:32.757Z,28.90
2019-04-11T17:52:59.480Z,29.00
2019-04-11T17:55:25.840Z,29.20
2019-04-11T17:57:52.108Z,29.30
2019-04-11T18:00:29.565Z,29.40
2019-04-11T18:02:57.521Z,29.50
2019-04-11T18:05:26.300Z,29.60
2019-04-11T18:07:52.536Z,29.70
2019-04-11T18:10:18.737Z,29.90
2019-04-11T18:12:44.935Z,30.00
2019-04-11T18:15:11.384Z,30.00
2019-04-11T18:17:56.309Z,30.20
2019-04-11T18:20:23.661Z,30.20
2019-04-11T18:22:50.484Z,30.30
2019-04-11T18:25:26.001Z,30.40
2019-04-11T18:27:52.503Z,30.40
2019-04-11T18:30:20.917Z,30.50
2019-04-11T18:32:49.835Z,30.60
2019-04-11T18:35:18.827Z,30.60
2019-04-11T18:37:45.020Z,30.70
2019-04-11T18:40:30.294Z,30.80
2019-04-11T18:42:56.614Z,31.00
2019-04-11T18:45:25.803Z,31.10
2019-04-11T18:47:57.825Z,31.20
2019-04-11T18:50:28.806Z,31.30
2019-04-11T18:52:59.192Z,31.40
2019-04-11T18:55:23.320Z,31.40
2019-04-11T18:57:52.357Z,31.60
2019-04-11T19:00:20.412Z,31.60
2019-04-11T19:02:49.383Z,31.70
2019-04-11T19:05:23.319Z,32.00
2019-04-11T19:07:46.787Z,32.10
2019-04-11T19:10:15.075Z,32.00
2019-04-11T19:12:43.934Z,32.10
2019-04-11T19:15:28.672Z,32.10
2019-04-11T19:18:05.731Z,32.20
2019-04-11T19:20:26.013Z,32.30
2019-04-11T19:22:52.213Z,32.40
2019-04-11T19:25:18.422Z,32.50
2019-04-11T19:27:50.043Z,32.50
2019-04-11T19:30:15.326Z,32.70
2019-04-11T19:32:41.607Z,32.80
2019-04-11T19:35:07.803Z,33.00
2019-04-11T19:37:34.098Z,33.10
2019-04-11T19:40:04.376Z,33.70
2019-04-11T19:42:49.823Z,33.20
2019-04-11T19:45:16.893Z,33.20
2019-04-11T19:47:44.270Z,33.30
2019-04-11T19:50:16.471Z,33.30
2019-04-11T19:53:16.823Z,34.50
2019-04-11T19:55:52.394Z,34.80
2019-04-11T19:58:20.654Z,34.90
2019-04-11T20:00:47.517Z,34.90
2019-04-11T20:03:13.863Z,35.10
2019-04-11T20:05:40.096Z,35.10
2019-04-11T20:08:06.297Z,35.20
2019-04-11T20:10:35.344Z,35.40
2019-04-11T20:13:02.719Z,35.50
2019-04-11T20:15:36.997Z,35.60
2019-04-11T20:17:59.742Z,35.50
2019-04-11T20:20:26.322Z,35.80
2019-04-11T20:22:59.134Z,36.20
2019-04-11T20:25:23.462Z,35.90
2019-04-11T20:27:50.665Z,36.00
2019-04-11T20:30:17.574Z,36.00
2019-04-11T20:32:43.903Z,36.30
2019-04-11T20:35:10.309Z,36.30
2019-04-11T20:37:42.275Z,36.40
2019-04-11T20:40:10.661Z,36.50
2019-04-11T20:42:36.853Z,36.70
2019-04-11T20:45:06.012Z,36.60
2019-04-11T20:47:32.330Z,36.80
2019-04-11T20:50:07.411Z,36.70
2019-04-11T20:52:29.540Z,36.90
2019-04-11T20:54:55.811Z,36.90
2019-04-11T20:57:25.874Z,37.00
2019-04-11T20:59:50.277Z,37.10
2019-04-11T21:02:16.574Z,37.10
2019-04-11T21:04:42.818Z,37.80
2019-04-11T21:07:09.038Z,37.30
2019-04-11T21:09:35.262Z,37.50
